WXM80 ListenWXM80 Stop

You find our weather info also at:

UK Metoffice

WeatherCloud

Weather Underground

Northeastern Weather Network

AWEKAS

Citizen Weather Observer Program (CWOP)

HAMweather, WeatherForYou, PWS Weather


Weather Underground History page Text

Daily Summary for October 11, 2017 Units:  Metric    English   Both
« Previous Day
Next Day »
Daily Weekly Monthly Yearly Custom
  High: Low: Average:
Temperature: 23.2 °C 15.5 °C 18.8 °C
Dew Point: 18.8 °C 12.7 °C 16.4 °C
Humidity: 97 % 73 % 87 %
Wind Speed: 9 km/h 0 km/h 2.3 km/h
Wind Gust: 16.7 km/h - -
Wind:- - East
Pressure: 1021.2 hPa 1001.9 hPa -
Precipitation: 1.02 mm    
Historical Graphs
 
 
Tabular Data for October 11, 2017
Time Temperature Dew Point Pressure Wind Wind Speed Wind Gust Humidity Rainfall Rate (Hourly)
00:04 17.2 °C 16.1 °C 1011.4 hPa Calm     93 % 0 mm
00:09 17.2 °C 16 °C 1014.4 hPa Calm     93 % 0 mm
00:14 17.2 °C 16.2 °C 1013.1 hPa Calm     94 % 0 mm
00:19 17.2 °C 16.2 °C 1014.4 hPa Calm     94 % 0 mm
00:25 17.1 °C 16.1 °C 1014.4 hPa Calm     94 % 0 mm
00:30 17.1 °C 16.1 °C 1014.1 hPa Calm     94 % 0 mm
00:35 17.1 °C 16.1 °C 1012.8 hPa Calm   1.9 km/h 94 % 0 mm
00:40 17.1 °C 16.1 °C 1012.8 hPa Calm     94 % 0 mm
00:45 17.1 °C 16.1 °C 1010.7 hPa Calm     94 % 0 mm
00:50 17 °C 16 °C 1013.1 hPa Calm     94 % 0 mm
00:55 17 °C 16 °C 1012.4 hPa Calm     94 % 0 mm
01:00 16.9 °C 15.9 °C 1012.1 hPa Calm     94 % 0 mm
01:05 16.9 °C 15.9 °C 1011.1 hPa Calm     94 % 0 mm
01:10 16.9 °C 15.9 °C 1011.4 hPa Calm     94 % 0 mm
01:15 16.8 °C 15.9 °C 1010.7 hPa Calm     94 % 0 mm
01:20 16.8 °C 15.9 °C 1008.7 hPa Calm     94 % 0 mm
01:26 16.8 °C 15.8 °C 1009.4 hPa Calm     94 % 0 mm
01:31 16.7 °C 15.8 °C 1017.5 hPa Calm     94 % 0 mm
01:36 16.7 °C 15.7 °C 1017.5 hPa Calm     94 % 0 mm
01:41 16.6 °C 15.7 °C 1012.4 hPa Calm     94 % 0 mm
01:46 16.6 °C 15.6 °C 1011.7 hPa Calm     94 % 0 mm
01:51 16.6 °C 15.6 °C 1013.1 hPa Calm     94 % 0 mm
01:56 16.5 °C 15.6 °C 1013.8 hPa Calm     94 % 0 mm
02:01 16.4 °C 15.5 °C 1013.8 hPa Calm     94 % 0 mm
02:06 16.4 °C 15.5 °C 1014.8 hPa Calm     94 % 0 mm
02:11 16.4 °C 15.7 °C 1009.7 hPa Calm     95 % 0 mm
02:16 16.4 °C 15.6 °C 1012.1 hPa Calm     95 % 0 mm
02:22 16.4 °C 15.6 °C 1012.8 hPa Calm     95 % 0 mm
02:27 16.4 °C 15.6 °C 1010 hPa Calm     95 % 0 mm
02:32 16.3 °C 15.6 °C 1011.4 hPa Calm     95 % 0 mm
02:37 16.3 °C 15.5 °C 1009 hPa Calm   1.9 km/h 95 % 0 mm
02:42 16.3 °C 15.5 °C 1009 hPa Calm     95 % 0 mm
02:47 16.2 °C 15.4 °C 1013.8 hPa Calm     95 % 0 mm
02:52 16.2 °C 15.4 °C 1013.8 hPa Calm   1.9 km/h 95 % 0 mm
02:57 16.1 °C 15.3 °C 1013.1 hPa Calm     95 % 0 mm
03:02 16.1 °C 15.3 °C 1015.5 hPa Calm     95 % 0 mm
03:07 16.1 °C 15.3 °C 1016.5 hPa Calm     95 % 0 mm
03:12 16 °C 15.2 °C 1012.4 hPa Calm     95 % 0 mm
03:17 15.9 °C 15.2 °C 1012.4 hPa Calm     95 % 0 mm
03:22 15.9 °C 15.2 °C 1013.8 hPa Calm     95 % 0 mm
03:27 15.9 °C 15.1 °C 1015.8 hPa West 0.5 km/h 1.9 km/h 95 % 0 mm
03:32 15.8 °C 15.1 °C 1013.8 hPa Calm     95 % 0 mm
03:38 15.8 °C 15 °C 1013.1 hPa Calm     95 % 0 mm
03:43 15.8 °C 15 °C 1013.1 hPa Calm     95 % 0 mm
03:48 15.7 °C 14.9 °C 1016.1 hPa Calm     95 % 0 mm
03:53 15.7 °C 14.9 °C 1014.1 hPa Calm     95 % 0 mm
03:58 15.6 °C 14.8 °C 1012.4 hPa Calm     95 % 0 mm
04:03 15.6 °C 14.8 °C 1013.8 hPa Calm     95 % 0 mm
04:08 15.6 °C 14.8 °C 1011.7 hPa Calm     95 % 0 mm
04:13 15.6 °C 14.8 °C 1011.7 hPa Calm   1.9 km/h 95 % 0 mm
04:18 15.5 °C 14.7 °C 1016.5 hPa Calm     95 % 0 mm
04:23 15.5 °C 14.7 °C 1012.4 hPa Calm     95 % 0 mm
04:28 15.5 °C 14.7 °C 1014.8 hPa Calm     95 % 0 mm
04:29 15.5 °C 14.7 °C 1015.1 hPa Calm     95 % 0 mm
04:34 15.5 °C 14.9 °C 1013.8 hPa Calm     96 % 0 mm
04:39 15.5 °C 14.9 °C 1013.8 hPa Calm     96 % 0 mm
04:44 15.6 °C 14.9 °C 1009 hPa Calm     96 % 0 mm
04:49 15.6 °C 14.9 °C 1018.5 hPa Calm     96 % 0 mm
04:54 15.6 °C 14.9 °C 1017.2 hPa Calm     96 % 0 mm
04:59 15.6 °C 14.9 °C 1017.2 hPa Calm     96 % 0 mm
05:01 15.6 °C 14.9 °C 1017.5 hPa Calm     96 % 0 mm
05:06 15.6 °C 14.9 °C 1013.8 hPa Calm     96 % 0 mm
05:11 15.6 °C 15 °C 1013.1 hPa Calm     96 % 0 mm
05:16 15.6 °C 15 °C 1013.4 hPa Calm     96 % 0 mm
05:21 15.7 °C 15.1 °C 1015.5 hPa Calm     96 % 0 mm
05:26 15.7 °C 15.1 °C 1014.1 hPa Calm     96 % 0 mm
05:31 15.8 °C 15.2 °C 1014.4 hPa Calm     96 % 0 mm
05:41 15.8 °C 15.2 °C 1015.5 hPa Calm     96 % 0 mm
05:46 15.8 °C 15.3 °C 1010 hPa Calm     97 % 0 mm
05:51 15.8 °C 15.3 °C 1016.1 hPa Calm     97 % 0 mm
05:56 15.8 °C 15.3 °C 1012.8 hPa Calm     97 % 0 mm
06:01 15.9 °C 15.4 °C 1016.8 hPa Calm     97 % 0 mm
06:06 15.9 °C 15.4 °C 1015.8 hPa Calm     97 % 0 mm
06:11 15.9 °C 15.4 °C 1011.7 hPa Calm     97 % 0 mm
06:16 16 °C 15.5 °C 1011.1 hPa Calm     97 % 0 mm
06:21 16.1 °C 15.6 °C 1013.1 hPa NE 0.6 km/h 5.6 km/h 97 % 0 mm
06:27 16.2 °C 15.7 °C 1011.4 hPa ENE 2.6 km/h 3.2 km/h 97 % 0 mm
06:32 16.2 °C 15.7 °C 1010.4 hPa Calm   1.6 km/h 97 % 0 mm
06:37 16.2 °C 15.7 °C 1013.1 hPa ENE 2.4 km/h 5.6 km/h 97 % 0 mm
06:42 16.3 °C 15.8 °C 1012.8 hPa ENE 3.2 km/h 5.6 km/h 97 % 0 mm
06:47 16.3 °C 15.8 °C 1012.4 hPa ENE 0.3 km/h 1.9 km/h 97 % 0 mm
06:52 16.3 °C 15.8 °C 1013.4 hPa ENE 0.2 km/h 1.9 km/h 97 % 0 mm
06:57 16.4 °C 15.9 °C 1014.1 hPa East 3.1 km/h 5.6 km/h 97 % 0 mm
07:02 16.5 °C 16 °C 1015.1 hPa ENE 2.6 km/h 3.7 km/h 97 % 0 mm
07:07 16.6 °C 16.1 °C 1015.8 hPa ENE 4.8 km/h 7.4 km/h 97 % 0 mm
07:12 16.6 °C 16.1 °C 1015.5 hPa NE 3.2 km/h 7.4 km/h 97 % 0 mm
07:17 16.7 °C 16.2 °C 1015.5 hPa NE 0.8 km/h 5.6 km/h 97 % 0 mm
07:22 16.7 °C 16.1 °C 1013.4 hPa NE 1.3 km/h 3.7 km/h 96 % 0 mm
07:23 16.7 °C 16.1 °C 1012.8 hPa NE 1.3 km/h 3.7 km/h 96 % 0 mm
07:28 16.8 °C 16.1 °C 1012.8 hPa ENE 3.4 km/h 5.6 km/h 96 % 0 mm
07:33 16.9 °C 16.2 °C 1015.5 hPa ENE 2.9 km/h 5.6 km/h 96 % 0 mm
07:38 16.9 °C 16.3 °C 1013.8 hPa ENE 0.5 km/h 3.7 km/h 96 % 0 mm
07:43 17 °C 16.3 °C 1013.1 hPa ENE 1.6 km/h 6.4 km/h 96 % 0 mm
07:48 17.1 °C 16.4 °C 1013.4 hPa Calm     96 % 0 mm
07:53 17.1 °C 16.3 °C 1016.8 hPa NE 0.5 km/h 3.7 km/h 95 % 0 mm
08:03 17.2 °C 16.4 °C 1015.1 hPa ENE 1.6 km/h 1.9 km/h 95 % 0 mm
08:08 17.3 °C 16.4 °C 1014.8 hPa ENE 0.6 km/h 3.2 km/h 95 % 0 mm
08:14 17.3 °C 16.5 °C 1008.7 hPa NE 0.2 km/h 1.9 km/h 95 % 0 mm
08:19 17.4 °C 16.6 °C 1016.1 hPa NE 1.8 km/h 5.6 km/h 95 % 0 mm
08:24 17.4 °C 16.6 °C 1017.2 hPa Calm   5.6 km/h 95 % 0 mm
08:29 17.6 °C 16.6 °C 1016.5 hPa Calm     94 % 0 mm
08:34 17.6 °C 16.6 °C 1015.5 hPa Calm   1.9 km/h 94 % 0 mm
08:44 17.8 °C 16.8 °C 1012.1 hPa NNE 4.3 km/h 7.4 km/h 94 % 0 mm
08:49 17.9 °C 16.7 °C 1015.8 hPa North 7.2 km/h 11.1 km/h 93 % 0 mm
08:54 17.9 °C 16.8 °C 1016.8 hPa North 3.7 km/h 5.6 km/h 93 % 0 mm
08:59 18.1 °C 16.7 °C 1016.5 hPa NNE 2.1 km/h 5.6 km/h 92 % 0 mm
09:04 18.1 °C 16.8 °C 1016.8 hPa NNE 3.7 km/h 5.6 km/h 92 % 0 mm
09:09 18.2 °C 16.7 °C 1015.5 hPa NNE 5 km/h 13 km/h 91 % 0 mm
09:14 18.3 °C 16.7 °C 1017.2 hPa NE 2.4 km/h 11.1 km/h 90 % 0 mm
09:20 18.4 °C 16.8 °C 1016.1 hPa ENE 3.4 km/h 5.6 km/h 90 % 0 mm
09:25 18.5 °C 16.7 °C 1015.1 hPa ENE 4.5 km/h 6.4 km/h 89 % 0 mm
09:30 18.6 °C 16.6 °C 1016.8 hPa ENE 4.7 km/h 11.1 km/h 88 % 0 mm
09:35 18.7 °C 16.6 °C 1017.2 hPa Calm   1.9 km/h 88 % 0 mm
09:40 18.8 °C 16.7 °C 1013.4 hPa ENE 0.5 km/h 1.9 km/h 88 % 0 mm
09:45 18.9 °C 16.8 °C 1013.4 hPa ENE 0.3 km/h 1.9 km/h 88 % 0 mm
09:50 19 °C 16.8 °C 1015.5 hPa ENE 0.2 km/h 1.9 km/h 87 % 0 mm
09:55 19.2 °C 16.9 °C 1011.4 hPa NE 3.4 km/h 5.6 km/h 87 % 0 mm
10:00 19.3 °C 16.9 °C 1016.1 hPa NE 4.3 km/h 6.4 km/h 86 % 0 mm
10:05 19.4 °C 17.2 °C 1011.1 hPa NE 3.4 km/h 5.6 km/h 87 % 0 mm
10:10 19.6 °C 17.3 °C 1016.8 hPa NE 7.7 km/h 14.8 km/h 87 % 0 mm
10:15 19.7 °C 17.3 °C 1012.8 hPa NE 1.3 km/h 5.6 km/h 86 % 0 mm
10:20 19.8 °C 17.4 °C 1010 hPa NE 4.8 km/h 5.6 km/h 86 % 0 mm
10:25 20 °C 17.6 °C 1016.8 hPa NNW 2.7 km/h 5.6 km/h 86 % 0 mm
10:30 20.1 °C 17.4 °C 1014.4 hPa NNE 5.5 km/h 9.3 km/h 85 % 0 mm
10:35 20.2 °C 17.6 °C 1012.4 hPa ENE 3.1 km/h 5.6 km/h 85 % 0 mm
10:40 20.3 °C 17.7 °C 1015.1 hPa ENE 3.5 km/h 12.9 km/h 85 % 0 mm
10:45 20.4 °C 17.4 °C 1014.1 hPa NNE 6.6 km/h 14.8 km/h 83 % 0 mm
10:50 20.6 °C 17.8 °C 1016.8 hPa NE 5 km/h 7.4 km/h 84 % 0 mm
10:55 20.7 °C 17.5 °C 1018.5 hPa ENE 3.5 km/h 13 km/h 82 % 0 mm
11:01 20.8 °C 17.6 °C 1016.1 hPa East 9 km/h 16.7 km/h 82 % 0 mm
11:05 20.8 °C 17.4 °C 1014.8 hPa ENE 8.7 km/h 16.7 km/h 81 % 0 mm
11:15 20.9 °C 17.6 °C 1015.1 hPa ENE 3.2 km/h 5.6 km/h 81 % 0 mm
11:20 21.1 °C 17.9 °C 1014.8 hPa NE 3.2 km/h 6.4 km/h 82 % 0 mm
11:25 21.1 °C 17.3 °C 1014.4 hPa ENE 5.3 km/h 13 km/h 79 % 0 mm
11:30 21.1 °C 17.4 °C 1013.8 hPa ENE 3.5 km/h 11.1 km/h 80 % 0 mm
11:35 21 °C 17.4 °C 1010.7 hPa ENE 2.7 km/h 5.6 km/h 80 % 0 mm
11:40 20.9 °C 17.4 °C 1014.8 hPa ENE 3.5 km/h 7.4 km/h 80 % 0 mm
11:45 21.1 °C 17.7 °C 1014.1 hPa ENE 2.6 km/h 5.6 km/h 81 % 0 mm
11:50 21.4 °C 18.2 °C 1013.4 hPa ENE 2.3 km/h 3.7 km/h 82 % 0 mm
12:05 22.8 °C 18.8 °C 1015.1 hPa NE 2.4 km/h 4.8 km/h 78 % 0 mm
12:10 23.2 °C 18.5 °C 1014.4 hPa NE 6.8 km/h 12.9 km/h 75 % 0 mm
12:15 23.2 °C 18.3 °C 1010.4 hPa ENE 3.5 km/h 5.6 km/h 74 % 0 mm
12:19 23.2 °C 18.3 °C 1016.5 hPa ENE 5 km/h 11.1 km/h 74 % 0 mm
12:21 23.1 °C 18.2 °C 1014.8 hPa ENE 3.2 km/h 3.7 km/h 74 % 0 mm
12:26 22.8 °C 17.9 °C 1015.5 hPa ENE 2.4 km/h 3.7 km/h 74 % 0 mm
12:31 22.6 °C 17.7 °C 1011.1 hPa ENE 3.4 km/h 5.6 km/h 74 % 0 mm
12:36 22.3 °C 17.7 °C 1010.7 hPa ENE 1.8 km/h 3.7 km/h 75 % 0 mm
12:39 22.3 °C 17.6 °C 1008.7 hPa ENE 2.6 km/h 5.6 km/h 75 % 0 mm
12:44 22.3 °C 17.8 °C 1006.7 hPa ENE 2.7 km/h 7.4 km/h 76 % 0 mm
12:49 22.2 °C 17.8 °C 1011.4 hPa ENE 1.3 km/h 3.7 km/h 76 % 0 mm
12:54 22.2 °C 18 °C 1012.8 hPa ENE 4.3 km/h 5.6 km/h 77 % 0 mm
12:59 22.4 °C 17.9 °C 1012.1 hPa ENE 2.9 km/h 7.4 km/h 76 % 0 mm
13:05 22.5 °C 18.1 °C 1011.7 hPa ENE 3.9 km/h 6.4 km/h 76 % 0 mm
13:10 22.6 °C 18.2 °C 1012.8 hPa ENE 5.6 km/h 5.6 km/h 76 % 0 mm
13:15 22.8 °C 18.4 °C 1015.8 hPa ENE 4 km/h 5.6 km/h 76 % 0 mm
13:20 23 °C 18.6 °C 1013.8 hPa ENE 4 km/h 6.4 km/h 76 % 0 mm
13:25 23.1 °C 18.2 °C 1013.4 hPa ENE 3.9 km/h 5.6 km/h 74 % 0 mm
13:30 23.1 °C 17.9 °C 1011.7 hPa NE 5.6 km/h 14.8 km/h 73 % 0 mm
13:35 23.1 °C 18.2 °C 1010 hPa ENE 4.8 km/h 9.3 km/h 74 % 0 mm
13:40 23.1 °C 17.9 °C 1014.4 hPa East 5.3 km/h 11.1 km/h 73 % 0 mm
13:44 23.1 °C 18.4 °C 1011.7 hPa ENE 5 km/h 6.4 km/h 75 % 0 mm
13:49 22.9 °C 18.3 °C 1001.9 hPa NE 3.4 km/h 7.4 km/h 75 % 0 mm
13:54 22.8 °C 18.1 °C 1007.7 hPa ENE 2.4 km/h 11.1 km/h 75 % 0 mm
13:59 22.7 °C 18.2 °C 1009.4 hPa NNE 7.7 km/h 13 km/h 76 % 0 mm
14:04 22.7 °C 18.5 °C 1010 hPa ENE 6.3 km/h 11.1 km/h 77 % 0 mm
14:06 22.8 °C 18.8 °C 1012.8 hPa ENE 5.1 km/h 9.3 km/h 78 % 0 mm
14:11 23 °C 18.6 °C 1009 hPa NE 4.2 km/h 7.4 km/h 76 % 0 mm
14:16 23.1 °C 18.2 °C 1013.4 hPa East 8 km/h 14.8 km/h 74 % 0 mm
14:21 23 °C 18.3 °C 1018.8 hPa ENE 3.5 km/h 5.6 km/h 75 % 0 mm
14:26 23.1 °C 18.4 °C 1018.8 hPa ENE 3.7 km/h 5.6 km/h 75 % 0 mm
14:31 23.1 °C 17.9 °C 1018.8 hPa ENE 6.1 km/h 6.4 km/h 73 % 0 mm
14:41 22.9 °C 18.2 °C 1017.8 hPa ENE 4 km/h 5.6 km/h 75 % 0 mm
14:46 22.8 °C 17.9 °C 1017.5 hPa ENE 4.3 km/h 7.4 km/h 74 % 0 mm
14:51 22.7 °C 17.6 °C 1017.2 hPa ENE 6.3 km/h 11.1 km/h 73 % 0 mm
14:56 22.6 °C 17.7 °C 1017.5 hPa ENE 5.3 km/h 6.4 km/h 74 % 0 mm
15:01 22.4 °C 17.8 °C 1017.5 hPa East 4.7 km/h 9.3 km/h 75 % 0 mm
15:06 22.3 °C 17.7 °C 1017.2 hPa ENE 3.7 km/h 5.6 km/h 75 % 0 mm
15:11 22.2 °C 17.6 °C 1017.5 hPa East 4 km/h 7.4 km/h 75 % 0 mm
15:17 22.1 °C 17.6 °C 1017.2 hPa East 4 km/h 7.4 km/h 76 % 0 mm
15:22 22 °C 17.8 °C 1016.8 hPa East 3.7 km/h 5.6 km/h 77 % 0 mm
15:27 22.1 °C 18.3 °C 1017.2 hPa ENE 4 km/h 5.6 km/h 79 % 0 mm
15:32 22.2 °C 18.2 °C 1017.2 hPa ENE 5.5 km/h 11.1 km/h 78 % 0 mm
15:37 22.3 °C 18.3 °C 1016.8 hPa ENE 4 km/h 5.6 km/h 78 % 0 mm
15:42 22.3 °C 18.1 °C 1016.8 hPa ENE 4.7 km/h 7.4 km/h 77 % 0 mm
15:47 22.3 °C 18.1 °C 1016.5 hPa East 5.5 km/h 9.7 km/h 77 % 0 mm
15:48 22.3 °C 18.1 °C 1016.8 hPa East 5 km/h 9.3 km/h 77 % 0 mm
15:53 22.2 °C 18.2 °C 1016.8 hPa ENE 4 km/h 5.6 km/h 78 % 0 mm
15:58 22.1 °C 18.1 °C 1016.8 hPa ENE 4.2 km/h 5.6 km/h 78 % 0 mm
16:03 21.9 °C 18.1 °C 1016.8 hPa ENE 3.4 km/h 7.4 km/h 79 % 0 mm
16:08 21.8 °C 18 °C 1018.2 hPa East 4 km/h 7.4 km/h 79 % 0 mm
16:13 21.8 °C 18.2 °C 1016.8 hPa East 3.9 km/h 5.6 km/h 80 % 0 mm
16:19 21.8 °C 18.4 °C 1016.8 hPa ENE 3.1 km/h 5.6 km/h 81 % 0 mm
16:24 21.9 °C 18.6 °C 1016.5 hPa ENE 2.1 km/h 5.6 km/h 81 % 0 mm
16:29 21.9 °C 18.6 °C 1016.5 hPa ENE 2.3 km/h 5.6 km/h 81 % 0 mm
16:34 21.9 °C 18.5 °C 1016.5 hPa ENE 2.7 km/h 5.6 km/h 81 % 0 mm
16:39 21.8 °C 18.4 °C 1016.8 hPa ENE 3.2 km/h 5.6 km/h 81 % 0 mm
16:44 21.8 °C 18.4 °C 1016.5 hPa ENE 2.7 km/h 5.6 km/h 81 % 0 mm
16:49 21.7 °C 18.3 °C 1016.5 hPa ENE 2.9 km/h 3.7 km/h 81 % 0 mm
16:54 21.7 °C 18.3 °C 1016.5 hPa ENE 1.8 km/h 3.7 km/h 81 % 0 mm
16:59 21.7 °C 18.4 °C 1018.2 hPa ENE 1.8 km/h 3.7 km/h 82 % 0 mm
17:04 21.7 °C 18.7 °C 1016.5 hPa ENE 1.3 km/h 3.7 km/h 83 % 0 mm
17:09 21.7 °C 18.4 °C 1016.8 hPa ENE 1.4 km/h 1.9 km/h 82 % 0 mm
17:14 21.6 °C 18.4 °C 1016.8 hPa ENE 0.8 km/h 1.9 km/h 82 % 0 mm
17:19 21.6 °C 18.3 °C 1017.2 hPa ENE 0.5 km/h 3.7 km/h 82 % 0 mm
17:24 21.5 °C 18.5 °C 1017.2 hPa ENE 0.2 km/h 1.9 km/h 83 % 0 mm
17:29 21.4 °C 18.2 °C 1017.5 hPa ENE 0.3 km/h 1.9 km/h 82 % 0 mm
17:34 21.4 °C 18.4 °C 1017.5 hPa ENE 1.8 km/h 5.6 km/h 83 % 0 mm
17:39 21.3 °C 18.1 °C 1017.5 hPa ENE 4.5 km/h 7.4 km/h 82 % 0 mm
17:44 21.3 °C 18.1 °C 1019.5 hPa ENE 2.4 km/h 5.6 km/h 82 % 0 mm
17:49 21.3 °C 18.3 °C 1019.2 hPa ENE 0.6 km/h 5.6 km/h 83 % 0 mm
17:54 21.2 °C 18.2 °C 1019.2 hPa ENE 2.7 km/h 5.6 km/h 83 % 0 mm
17:59 21.2 °C 18.3 °C 1018.2 hPa ENE 0.8 km/h 1.9 km/h 84 % 0 mm
18:00 21.2 °C 18.3 °C 1018.5 hPa ENE 0.6 km/h 1.9 km/h 84 % 0 mm
18:05 21.2 °C 18.6 °C 1019.2 hPa Calm   1.9 km/h 85 % 0 mm
18:10 21.1 °C 18.5 °C 1018.2 hPa ENE 0.3 km/h 1.9 km/h 85 % 0 mm
18:15 21.1 °C 18.2 °C 1018.2 hPa ENE 0.2 km/h 1.9 km/h 84 % 0 mm
18:20 20.9 °C 18.1 °C 1019.5 hPa Calm     84 % 0 mm
18:25 20.9 °C 18.1 °C 1020.2 hPa Calm   1.9 km/h 84 % 0 mm
18:30 20.8 °C 18.1 °C 1018.5 hPa Calm   1.9 km/h 84 % 0 mm
18:35 20.8 °C 18.2 °C 1018.5 hPa ENE 0.2 km/h 1.9 km/h 85 % 0 mm
18:40 20.8 °C 18 °C 1018.5 hPa Calm     84 % 0 mm
18:50 20.7 °C 17.5 °C 1018.5 hPa SE 0.6 km/h 1.9 km/h 82 % 0 mm
18:51 20.7 °C 17.5 °C 1018.5 hPa SE 0.3 km/h 1.9 km/h 82 % 0 mm
18:56 20.6 °C 17.4 °C 1018.5 hPa Calm   3.2 km/h 82 % 0 mm
19:01 20.5 °C 17.7 °C 1018.5 hPa SE 0.3 km/h 1.9 km/h 84 % 0 mm
19:06 20.4 °C 17.8 °C 1018.5 hPa Calm   3.2 km/h 85 % 0.25 mm
19:11 20.3 °C 17.9 °C 1020.2 hPa SE 1.6 km/h 9.7 km/h 86 % 0 mm
19:16 20.2 °C 17.8 °C 1018.8 hPa ESE 1.6 km/h 3.2 km/h 86 % 0 mm
19:21 19.9 °C 17.7 °C 1019.9 hPa ESE 1.6 km/h 3.2 km/h 87 % 0 mm
19:26 19.8 °C 17.7 °C 1020.5 hPa ESE 1.6 km/h 4.8 km/h 88 % 0 mm
19:31 19.5 °C 17.3 °C 1019.2 hPa ESE 1.6 km/h 6.4 km/h 87 % 0 mm
19:36 19.3 °C 17.1 °C 1018.8 hPa East 1.6 km/h 4.8 km/h 87 % 0 mm
19:41 19.1 °C 17.1 °C 1018.8 hPa East 1.6 km/h 4.8 km/h 88 % 0 mm
19:46 18.9 °C 16.9 °C 1018.5 hPa East 1.6 km/h 3.2 km/h 88 % 0 mm
19:51 18.7 °C 16.9 °C 1020.2 hPa East 1.6 km/h 4.8 km/h 89 % 0 mm
19:56 18.6 °C 16.8 °C 1020.2 hPa ESE 1.6 km/h 8 km/h 89 % 0 mm
20:01 18.4 °C 16.6 °C 1018.5 hPa SE 2.6 km/h 5.6 km/h 89 % 0.76 mm
20:06 18.3 °C 16.5 °C 1018.8 hPa ESE 2.9 km/h 11.1 km/h 89 % 0.76 mm
20:11 18.2 °C 16.4 °C 1018.8 hPa ESE 0.6 km/h 5.6 km/h 89 % 0.51 mm
20:16 18.1 °C 16.4 °C 1020.5 hPa ESE 0.5 km/h 5.6 km/h 90 % 0.25 mm
20:21 18 °C 16.3 °C 1020.5 hPa ESE 3.7 km/h 5.6 km/h 90 % 0.51 mm
20:26 17.8 °C 16.1 °C 1020.9 hPa East 2.4 km/h 5.6 km/h 90 % 0.51 mm
20:31 17.7 °C 16.1 °C 1019.9 hPa East 2.1 km/h 5.6 km/h 90 % 0.51 mm
20:36 17.6 °C 15.9 °C 1019.2 hPa ESE 2.6 km/h 5.6 km/h 90 % 0.25 mm
20:41 17.6 °C 15.9 °C 1019.2 hPa ESE 1.6 km/h 5.6 km/h 90 % 0.25 mm
20:46 17.5 °C 15.8 °C 1019.5 hPa East 3.4 km/h 5.6 km/h 90 % 0.25 mm
20:51 17.4 °C 15.7 °C 1018.8 hPa East 4.7 km/h 8 km/h 90 % 0.25 mm
20:56 17.3 °C 15.6 °C 1019.2 hPa East 4 km/h 7.4 km/h 90 % 0.25 mm
21:01 17.2 °C 15.4 °C 1019.5 hPa East 3.1 km/h 5.6 km/h 89 % 0.25 mm
21:06 17.1 °C 15.1 °C 1019.5 hPa East 3.5 km/h 7.4 km/h 88 % 0.25 mm
21:11 17 °C 14.8 °C 1019.5 hPa East 4.8 km/h 8 km/h 87 % 0.25 mm
21:16 16.9 °C 14.6 °C 1019.5 hPa East 3.2 km/h 7.4 km/h 86 % 0.25 mm
21:21 16.9 °C 14.6 °C 1019.5 hPa ESE 5.6 km/h 9.3 km/h 86 % 0 mm
21:26 16.8 °C 14.5 °C 1021.2 hPa ESE 3.2 km/h 7.4 km/h 86 % 0 mm
21:31 16.8 °C 14.5 °C 1021.2 hPa ESE 4.8 km/h 14.8 km/h 86 % 0 mm
21:36 16.8 °C 14.3 °C 1021.2 hPa ESE 5.1 km/h 9.3 km/h 85 % 0 mm
21:41 16.8 °C 13.7 °C 1021.2 hPa East 7.6 km/h 16.7 km/h 82 % 0 mm
21:46 16.8 °C 13.7 °C 1019.5 hPa East 5.3 km/h 9.3 km/h 82 % 0 mm
21:56 16.8 °C 13.9 °C 1019.9 hPa East 5.5 km/h 7.4 km/h 83 % 0 mm
22:01 16.8 °C 13.7 °C 1019.9 hPa East 5.5 km/h 9.3 km/h 82 % 0 mm
22:06 16.8 °C 13.7 °C 1019.9 hPa ESE 4.8 km/h 7.4 km/h 82 % 0 mm
22:11 16.8 °C 13.7 °C 1019.9 hPa East 4.7 km/h 8 km/h 82 % 0 mm
22:16 16.7 °C 13.6 °C 1019.5 hPa East 5.5 km/h 7.4 km/h 82 % 0 mm
22:21 16.7 °C 13.3 °C 1019.5 hPa East 3.9 km/h 5.6 km/h 80 % 0 mm
22:26 16.7 °C 13.2 °C 1019.5 hPa East 5 km/h 9.3 km/h 80 % 0 mm
22:31 16.7 °C 13.2 °C 1019.5 hPa East 5.5 km/h 8 km/h 80 % 0 mm
22:41 16.7 °C 13.2 °C 1019.5 hPa East 4.8 km/h 5.6 km/h 80 % 0 mm
22:46 16.7 °C 13.4 °C 1019.5 hPa East 5.6 km/h 8 km/h 81 % 0 mm
22:51 16.7 °C 13.4 °C 1019.2 hPa East 7.9 km/h 11.3 km/h 81 % 0 mm
22:56 16.7 °C 13.2 °C 1019.5 hPa East 6.3 km/h 11.1 km/h 80 % 0 mm
23:01 16.7 °C 13.4 °C 1019.5 hPa East 7.7 km/h 9.7 km/h 81 % 0 mm
23:06 16.7 °C 13.4 °C 1020.2 hPa East 5.1 km/h 9.3 km/h 81 % 0 mm
23:12 16.7 °C 13.2 °C 1019.5 hPa ESE 6.8 km/h 11.1 km/h 80 % 0 mm
23:17 16.7 °C 13 °C 1019.9 hPa East 6.1 km/h 9.3 km/h 79 % 0 mm
23:22 16.7 °C 13 °C 1019.2 hPa SE 3.2 km/h 7.4 km/h 79 % 0 mm
23:26 16.7 °C 12.8 °C 1019.5 hPa East 5.1 km/h 9.3 km/h 78 % 0 mm
23:31 16.6 °C 12.8 °C 1019.2 hPa East 3.5 km/h 5.6 km/h 78 % 0 mm
23:36 16.6 °C 12.7 °C 1019.2 hPa East 2.9 km/h 5.6 km/h 78 % 0 mm
23:41 16.6 °C 12.7 °C 1019.5 hPa East 2.4 km/h 9.3 km/h 78 % 0 mm
23:46 16.5 °C 12.8 °C 1019.9 hPa ESE 2.6 km/h 5.6 km/h 79 % 0 mm
23:51 16.5 °C 12.8 °C 1019.9 hPa East 2.6 km/h 5.6 km/h 79 % 0 mm
23:56 16.5 °C 13.1 °C 1020.2 hPa ENE 2.4 km/h 3.7 km/h 80 % 0 mm
Crab Meadow Weather
Compliments of Weather Underground - 3 mb

Script developed by  Jim McMurry - jmcmurry@mwt.net Adapted for the template by  Wim van der Kuil - Leuven-Template.eu

Recycling: Recycling 1 aluminum can saves enough energy to run your TV for 3 hours. Recycling aluminum cans saves 95% of the energy used to make cans from virgin ore.